sensor_id;sensor_type;location;lat;lon;timestamp;temperature;humidity
1103;DHT22;538;42.654;23.376;2023-01-10T00:02:05;5.20;51.10
1103;DHT22;538;42.654;23.376;2023-01-10T00:04:33;5.10;51.40
1103;DHT22;538;42.654;23.376;2023-01-10T00:07:00;5.10;51.80
1103;DHT22;538;42.654;23.376;2023-01-10T00:09:28;5.10;52.20
1103;DHT22;538;42.654;23.376;2023-01-10T00:11:55;4.90;53.30
1103;DHT22;538;42.654;23.376;2023-01-10T00:14:40;4.90;54.50
1103;DHT22;538;42.654;23.376;2023-01-10T00:17:07;4.90;55.60
1103;DHT22;538;42.654;23.376;2023-01-10T00:19:34;4.80;55.30
1103;DHT22;538;42.654;23.376;2023-01-10T00:22:01;4.80;55.90
1103;DHT22;538;42.654;23.376;2023-01-10T00:24:39;4.90;55.60
1103;DHT22;538;42.654;23.376;2023-01-10T00:27:08;4.90;56.20
1103;DHT22;538;42.654;23.376;2023-01-10T00:29:41;5.30;56.60
1103;DHT22;538;42.654;23.376;2023-01-10T00:32:08;4.80;57.40
1103;DHT22;538;42.654;23.376;2023-01-10T00:34:36;4.70;57.90
1103;DHT22;538;42.654;23.376;2023-01-10T00:37:03;4.70;58.30
1103;DHT22;538;42.654;23.376;2023-01-10T00:39:30;4.80;59.20
1103;DHT22;538;42.654;23.376;2023-01-10T00:41:59;4.70;59.60
1103;DHT22;538;42.654;23.376;2023-01-10T00:44:43;4.70;60.20
1103;DHT22;538;42.654;23.376;2023-01-10T00:47:11;4.70;60.40
1103;DHT22;538;42.654;23.376;2023-01-10T00:49:38;4.70;60.30
1103;DHT22;538;42.654;23.376;2023-01-10T00:52:05;4.70;60.40
1103;DHT22;538;42.654;23.376;2023-01-10T00:54:33;4.80;61.60
1103;DHT22;538;42.654;23.376;2023-01-10T00:57:01;4.70;62.00
1103;DHT22;538;42.654;23.376;2023-01-10T00:59:29;4.70;63.00
1103;DHT22;538;42.654;23.376;2023-01-10T01:01:56;4.70;63.20
1103;DHT22;538;42.654;23.376;2023-01-10T01:04:23;4.80;63.20
1103;DHT22;538;42.654;23.376;2023-01-10T01:06:50;4.90;62.50
1103;DHT22;538;42.654;23.376;2023-01-10T01:09:17;4.80;61.40
1103;DHT22;538;42.654;23.376;2023-01-10T01:11:44;4.90;60.50
1103;DHT22;538;42.654;23.376;2023-01-10T01:14:13;4.90;60.00
1103;DHT22;538;42.654;23.376;2023-01-10T01:16:40;5.00;59.70
1103;DHT22;538;42.654;23.376;2023-01-10T01:19:07;5.00;59.70
1103;DHT22;538;42.654;23.376;2023-01-10T01:21:34;5.00;59.70
1103;DHT22;538;42.654;23.376;2023-01-10T01:24:01;5.10;59.60
1103;DHT22;538;42.654;23.376;2023-01-10T01:26:28;5.10;58.50
1103;DHT22;538;42.654;23.376;2023-01-10T01:28:55;5.10;58.00
1103;DHT22;538;42.654;23.376;2023-01-10T01:31:23;5.10;57.50
1103;DHT22;538;42.654;23.376;2023-01-10T01:33:50;5.00;56.90
1103;DHT22;538;42.654;23.376;2023-01-10T01:36:17;5.10;57.40
1103;DHT22;538;42.654;23.376;2023-01-10T01:38:45;5.00;56.60
1103;DHT22;538;42.654;23.376;2023-01-10T01:41:12;5.10;57.10
1103;DHT22;538;42.654;23.376;2023-01-10T01:44:02;5.00;57.30
1103;DHT22;538;42.654;23.376;2023-01-10T01:46:32;5.00;57.60
1103;DHT22;538;42.654;23.376;2023-01-10T01:49:00;5.40;58.20
1103;DHT22;538;42.654;23.376;2023-01-10T01:51:30;5.20;57.80
1103;DHT22;538;42.654;23.376;2023-01-10T01:54:00;5.20;57.10
1103;DHT22;538;42.654;23.376;2023-01-10T01:56:34;5.20;56.50
1103;DHT22;538;42.654;23.376;2023-01-10T01:59:07;5.30;56.10
1103;DHT22;538;42.654;23.376;2023-01-10T02:01:37;5.30;55.40
1103;DHT22;538;42.654;23.376;2023-01-10T02:04:10;5.30;55.30
1103;DHT22;538;42.654;23.376;2023-01-10T02:06:39;5.30;54.50
1103;DHT22;538;42.654;23.376;2023-01-10T02:09:11;5.30;54.60
1103;DHT22;538;42.654;23.376;2023-01-10T02:11:40;5.30;54.90
1103;DHT22;538;42.654;23.376;2023-01-10T02:14:08;5.30;54.70
1103;DHT22;538;42.654;23.376;2023-01-10T02:16:38;5.30;54.10
1103;DHT22;538;42.654;23.376;2023-01-10T02:19:14;5.70;54.40
1103;DHT22;538;42.654;23.376;2023-01-10T02:22:15;5.30;54.40
1103;DHT22;538;42.654;23.376;2023-01-10T02:25:02;5.30;54.80
1103;DHT22;538;42.654;23.376;2023-01-10T02:27:44;5.40;55.00
1103;DHT22;538;42.654;23.376;2023-01-10T02:30:37;5.40;53.30
1103;DHT22;538;42.654;23.376;2023-01-10T02:33:15;5.30;53.00
1103;DHT22;538;42.654;23.376;2023-01-10T02:35:58;5.30;53.40
1103;DHT22;538;42.654;23.376;2023-01-10T02:38:35;5.20;54.00
1103;DHT22;538;42.654;23.376;2023-01-10T02:41:15;5.20;54.40
1103;DHT22;538;42.654;23.376;2023-01-10T02:43:47;5.20;54.10
1103;DHT22;538;42.654;23.376;2023-01-10T02:46:19;5.30;54.60
1103;DHT22;538;42.654;23.376;2023-01-10T02:48:51;5.30;54.30
1103;DHT22;538;42.654;23.376;2023-01-10T02:51:20;5.30;54.60
1103;DHT22;538;42.654;23.376;2023-01-10T02:53:50;5.30;55.00
1103;DHT22;538;42.654;23.376;2023-01-10T02:56:42;5.20;55.00
1103;DHT22;538;42.654;23.376;2023-01-10T03:02:19;5.30;54.50
1103;DHT22;538;42.654;23.376;2023-01-10T03:04:54;5.30;54.50
1103;DHT22;538;42.654;23.376;2023-01-10T03:07:31;5.30;54.80
1103;DHT22;538;42.654;23.376;2023-01-10T03:10:03;5.30;54.50
1103;DHT22;538;42.654;23.376;2023-01-10T03:12:36;5.30;54.10
1103;DHT22;538;42.654;23.376;2023-01-10T03:15:06;5.30;53.50
1103;DHT22;538;42.654;23.376;2023-01-10T03:17:35;5.30;53.30
1103;DHT22;538;42.654;23.376;2023-01-10T03:20:05;5.70;53.60
1103;DHT22;538;42.654;23.376;2023-01-10T03:22:35;5.30;53.70
1103;DHT22;538;42.654;23.376;2023-01-10T03:25:05;5.30;53.80
1103;DHT22;538;42.654;23.376;2023-01-10T03:27:38;5.30;53.80
1103;DHT22;538;42.654;23.376;2023-01-10T03:30:14;5.30;53.20
1103;DHT22;538;42.654;23.376;2023-01-10T03:32:44;5.30;53.00
1103;DHT22;538;42.654;23.376;2023-01-10T03:35:13;5.40;53.00
1103;DHT22;538;42.654;23.376;2023-01-10T03:37:44;5.30;52.40
1103;DHT22;538;42.654;23.376;2023-01-10T03:40:19;5.40;52.40
1103;DHT22;538;42.654;23.376;2023-01-10T03:42:54;5.40;51.50
1103;DHT22;538;42.654;23.376;2023-01-10T03:45:56;5.30;51.10
1103;DHT22;538;42.654;23.376;2023-01-10T03:48:26;5.30;50.80
1103;DHT22;538;42.654;23.376;2023-01-10T03:50:58;5.10;50.00
1103;DHT22;538;42.654;23.376;2023-01-10T03:53:26;5.10;50.40
1103;DHT22;538;42.654;23.376;2023-01-10T03:55:53;5.10;50.40
1103;DHT22;538;42.654;23.376;2023-01-10T03:58:20;5.10;51.60
1103;DHT22;538;42.654;23.376;2023-01-10T04:00:47;5.10;52.30
1103;DHT22;538;42.654;23.376;2023-01-10T04:03:15;5.10;53.30
1103;DHT22;538;42.654;23.376;2023-01-10T04:05:42;5.60;54.20
1103;DHT22;538;42.654;23.376;2023-01-10T04:08:11;5.20;53.80
1103;DHT22;538;42.654;23.376;2023-01-10T04:10:38;5.20;54.10
1103;DHT22;538;42.654;23.376;2023-01-10T04:13:05;5.20;53.30
1103;DHT22;538;42.654;23.376;2023-01-10T04:15:32;5.20;53.20
1103;DHT22;538;42.654;23.376;2023-01-10T04:17:59;5.20;53.50
1103;DHT22;538;42.654;23.376;2023-01-10T04:20:26;5.10;53.30
1103;DHT22;538;42.654;23.376;2023-01-10T04:22:53;5.20;53.60
1103;DHT22;538;42.654;23.376;2023-01-10T04:25:22;5.20;53.40
1103;DHT22;538;42.654;23.376;2023-01-10T04:27:50;5.20;53.20
1103;DHT22;538;42.654;23.376;2023-01-10T04:30:17;5.20;52.90
1103;DHT22;538;42.654;23.376;2023-01-10T04:32:46;5.20;52.90
1103;DHT22;538;42.654;23.376;2023-01-10T04:35:13;5.10;54.30
1103;DHT22;538;42.654;23.376;2023-01-10T04:37:40;5.00;55.20
1103;DHT22;538;42.654;23.376;2023-01-10T04:40:09;5.00;56.10
1103;DHT22;538;42.654;23.376;2023-01-10T04:42:38;4.90;57.10
1103;DHT22;538;42.654;23.376;2023-01-10T04:45:06;5.00;57.90
1103;DHT22;538;42.654;23.376;2023-01-10T04:47:34;5.00;58.40
1103;DHT22;538;42.654;23.376;2023-01-10T04:50:02;5.10;58.50
1103;DHT22;538;42.654;23.376;2023-01-10T04:52:29;5.10;57.20
1103;DHT22;538;42.654;23.376;2023-01-10T04:54:55;5.10;57.10
1103;DHT22;538;42.654;23.376;2023-01-10T04:57:22;5.20;57.30
1103;DHT22;538;42.654;23.376;2023-01-10T04:59:51;5.20;56.50
1103;DHT22;538;42.654;23.376;2023-01-10T05:02:18;5.20;55.10
1103;DHT22;538;42.654;23.376;2023-01-10T05:04:45;5.10;53.40
1103;DHT22;538;42.654;23.376;2023-01-10T05:07:12;5.00;54.40
1103;DHT22;538;42.654;23.376;2023-01-10T05:09:39;5.00;55.00
1103;DHT22;538;42.654;23.376;2023-01-10T05:12:07;4.90;56.50
1103;DHT22;538;42.654;23.376;2023-01-10T05:14:34;4.80;57.30
1103;DHT22;538;42.654;23.376;2023-01-10T05:17:02;4.90;58.50
1103;DHT22;538;42.654;23.376;2023-01-10T05:19:30;4.80;59.20
1103;DHT22;538;42.654;23.376;2023-01-10T05:21:57;4.80;60.50
1103;DHT22;538;42.654;23.376;2023-01-10T05:24:24;4.80;60.50
1103;DHT22;538;42.654;23.376;2023-01-10T05:26:51;4.90;61.10
1103;DHT22;538;42.654;23.376;2023-01-10T05:29:18;4.90;60.80
1103;DHT22;538;42.654;23.376;2023-01-10T05:31:45;4.90;60.50
1103;DHT22;538;42.654;23.376;2023-01-10T05:34:14;5.10;59.90
1103;DHT22;538;42.654;23.376;2023-01-10T05:36:41;5.00;59.10
1103;DHT22;538;42.654;23.376;2023-01-10T05:39:08;5.10;58.60
1103;DHT22;538;42.654;23.376;2023-01-10T05:41:35;5.10;57.70
1103;DHT22;538;42.654;23.376;2023-01-10T05:44:02;5.10;57.60
1103;DHT22;538;42.654;23.376;2023-01-10T05:46:29;5.20;56.80
1103;DHT22;538;42.654;23.376;2023-01-10T05:48:56;5.20;56.20
1103;DHT22;538;42.654;23.376;2023-01-10T05:51:25;5.00;55.90
1103;DHT22;538;42.654;23.376;2023-01-10T05:53:52;5.20;55.70
1103;DHT22;538;42.654;23.376;2023-01-10T05:56:19;5.20;55.60
1103;DHT22;538;42.654;23.376;2023-01-10T05:58:46;5.30;55.90
1103;DHT22;538;42.654;23.376;2023-01-10T06:01:13;5.30;55.90
1103;DHT22;538;42.654;23.376;2023-01-10T06:03:41;5.40;55.70
1103;DHT22;538;42.654;23.376;2023-01-10T06:06:08;5.50;53.60
1103;DHT22;538;42.654;23.376;2023-01-10T06:08:36;5.60;52.60
1103;DHT22;538;42.654;23.376;2023-01-10T06:11:03;5.50;52.50
1103;DHT22;538;42.654;23.376;2023-01-10T06:13:31;5.60;52.60
1103;DHT22;538;42.654;23.376;2023-01-10T06:15:59;5.60;52.00
1103;DHT22;538;42.654;23.376;2023-01-10T06:18:26;5.80;51.00
1103;DHT22;538;42.654;23.376;2023-01-10T06:20:53;5.70;50.10
1103;DHT22;538;42.654;23.376;2023-01-10T06:23:20;5.70;49.30
1103;DHT22;538;42.654;23.376;2023-01-10T06:25:48;5.70;49.50
1103;DHT22;538;42.654;23.376;2023-01-10T06:28:15;5.80;49.10
1103;DHT22;538;42.654;23.376;2023-01-10T06:30:42;5.80;48.40
1103;DHT22;538;42.654;23.376;2023-01-10T06:33:10;5.90;48.50
1103;DHT22;538;42.654;23.376;2023-01-10T06:35:37;5.90;47.60
1103;DHT22;538;42.654;23.376;2023-01-10T06:38:04;5.90;47.40
1103;DHT22;538;42.654;23.376;2023-01-10T06:40:31;6.00;47.60
1103;DHT22;538;42.654;23.376;2023-01-10T06:43:00;6.00;48.00
1103;DHT22;538;42.654;23.376;2023-01-10T06:45:27;6.00;48.30
1103;DHT22;538;42.654;23.376;2023-01-10T06:47:54;6.00;48.20
1103;DHT22;538;42.654;23.376;2023-01-10T06:50:21;6.00;48.50
1103;DHT22;538;42.654;23.376;2023-01-10T06:52:54;6.10;49.60
1103;DHT22;538;42.654;23.376;2023-01-10T06:55:21;6.10;51.40
1103;DHT22;538;42.654;23.376;2023-01-10T06:57:54;6.20;53.10
1103;DHT22;538;42.654;23.376;2023-01-10T07:00:24;6.20;54.50
1103;DHT22;538;42.654;23.376;2023-01-10T07:02:52;6.20;56.20
1103;DHT22;538;42.654;23.376;2023-01-10T07:05:21;6.40;57.30
1103;DHT22;538;42.654;23.376;2023-01-10T07:07:48;6.30;57.80
1103;DHT22;538;42.654;23.376;2023-01-10T07:10:15;6.40;57.90
1103;DHT22;538;42.654;23.376;2023-01-10T07:12:42;6.60;59.10
1103;DHT22;538;42.654;23.376;2023-01-10T07:15:10;6.60;59.80
1103;DHT22;538;42.654;23.376;2023-01-10T07:17:39;6.70;60.40
1103;DHT22;538;42.654;23.376;2023-01-10T07:20:07;6.70;60.80
1103;DHT22;538;42.654;23.376;2023-01-10T07:22:34;6.70;61.30
1103;DHT22;538;42.654;23.376;2023-01-10T07:25:01;6.70;62.20
1103;DHT22;538;42.654;23.376;2023-01-10T07:27:29;6.70;60.30
1103;DHT22;538;42.654;23.376;2023-01-10T07:29:56;6.60;60.00
1103;DHT22;538;42.654;23.376;2023-01-10T07:32:24;6.50;60.80
1103;DHT22;538;42.654;23.376;2023-01-10T07:34:53;6.40;61.90
1103;DHT22;538;42.654;23.376;2023-01-10T07:37:20;6.40;64.40
1103;DHT22;538;42.654;23.376;2023-01-10T07:39:47;6.30;64.00
1103;DHT22;538;42.654;23.376;2023-01-10T07:42:15;6.30;65.80
1103;DHT22;538;42.654;23.376;2023-01-10T07:44:42;6.40;66.70
1103;DHT22;538;42.654;23.376;2023-01-10T07:47:09;6.40;67.90
1103;DHT22;538;42.654;23.376;2023-01-10T07:49:36;6.40;68.70
1103;DHT22;538;42.654;23.376;2023-01-10T07:52:04;6.50;71.00
1103;DHT22;538;42.654;23.376;2023-01-10T07:54:33;6.50;70.20
1103;DHT22;538;42.654;23.376;2023-01-10T07:57:01;6.50;70.30
1103;DHT22;538;42.654;23.376;2023-01-10T07:59:28;6.50;69.40
1103;DHT22;538;42.654;23.376;2023-01-10T08:01:55;6.50;68.90
1103;DHT22;538;42.654;23.376;2023-01-10T08:04:22;6.50;70.10
1103;DHT22;538;42.654;23.376;2023-01-10T08:06:49;6.60;70.20
1103;DHT22;538;42.654;23.376;2023-01-10T08:09:18;6.60;71.10
1103;DHT22;538;42.654;23.376;2023-01-10T08:11:45;6.80;73.70
1103;DHT22;538;42.654;23.376;2023-01-10T08:14:12;6.80;74.40
1103;DHT22;538;42.654;23.376;2023-01-10T08:16:39;6.80;75.40
1103;DHT22;538;42.654;23.376;2023-01-10T08:19:06;6.90;75.00
1103;DHT22;538;42.654;23.376;2023-01-10T08:21:33;7.00;74.50
1103;DHT22;538;42.654;23.376;2023-01-10T08:24:00;7.00;74.50
1103;DHT22;538;42.654;23.376;2023-01-10T08:26:29;7.10;74.90
1103;DHT22;538;42.654;23.376;2023-01-10T08:28:56;7.20;74.90
1103;DHT22;538;42.654;23.376;2023-01-10T08:31:24;7.20;75.00
1103;DHT22;538;42.654;23.376;2023-01-10T08:33:51;7.20;73.50
1103;DHT22;538;42.654;23.376;2023-01-10T08:36:19;7.30;72.30
1103;DHT22;538;42.654;23.376;2023-01-10T08:38:47;7.40;71.60
1103;DHT22;538;42.654;23.376;2023-01-10T08:41:15;7.30;71.50
1103;DHT22;538;42.654;23.376;2023-01-10T08:43:44;7.40;72.30
1103;DHT22;538;42.654;23.376;2023-01-10T08:46:11;7.40;72.90
1103;DHT22;538;42.654;23.376;2023-01-10T08:48:38;7.40;71.60
1103;DHT22;538;42.654;23.376;2023-01-10T08:51:07;7.40;69.80
1103;DHT22;538;42.654;23.376;2023-01-10T08:53:35;7.40;67.70
1103;DHT22;538;42.654;23.376;2023-01-10T08:56:02;7.40;63.60
1103;DHT22;538;42.654;23.376;2023-01-10T08:58:29;7.40;61.30
1103;DHT22;538;42.654;23.376;2023-01-10T09:00:58;7.50;62.50
1103;DHT22;538;42.654;23.376;2023-01-10T09:03:25;7.40;62.80
1103;DHT22;538;42.654;23.376;2023-01-10T09:05:52;7.40;64.60
1103;DHT22;538;42.654;23.376;2023-01-10T09:08:19;7.50;66.00
1103;DHT22;538;42.654;23.376;2023-01-10T09:10:47;7.40;66.80
1103;DHT22;538;42.654;23.376;2023-01-10T09:13:14;7.40;66.70
1103;DHT22;538;42.654;23.376;2023-01-10T09:15:41;7.40;67.60
1103;DHT22;538;42.654;23.376;2023-01-10T09:18:11;7.40;67.50
1103;DHT22;538;42.654;23.376;2023-01-10T09:20:40;7.40;67.90
1103;DHT22;538;42.654;23.376;2023-01-10T09:23:08;7.50;68.10
1103;DHT22;538;42.654;23.376;2023-01-10T09:25:36;7.50;66.90
1103;DHT22;538;42.654;23.376;2023-01-10T09:28:04;7.50;67.40
1103;DHT22;538;42.654;23.376;2023-01-10T09:30:31;7.50;66.40
1103;DHT22;538;42.654;23.376;2023-01-10T09:32:58;7.60;66.00
1103;DHT22;538;42.654;23.376;2023-01-10T09:35:28;7.60;66.00
1103;DHT22;538;42.654;23.376;2023-01-10T09:37:56;7.60;65.10
1103;DHT22;538;42.654;23.376;2023-01-10T09:40:36;7.60;65.50
1103;DHT22;538;42.654;23.376;2023-01-10T09:43:12;7.60;65.90
1103;DHT22;538;42.654;23.376;2023-01-10T09:45:49;8.00;66.30
1103;DHT22;538;42.654;23.376;2023-01-10T09:48:23;7.70;66.70
1103;DHT22;538;42.654;23.376;2023-01-10T09:51:03;7.60;67.20
1103;DHT22;538;42.654;23.376;2023-01-10T09:53:38;7.70;67.80
1103;DHT22;538;42.654;23.376;2023-01-10T09:56:06;7.70;66.40
1103;DHT22;538;42.654;23.376;2023-01-10T09:58:35;7.80;65.90
1103;DHT22;538;42.654;23.376;2023-01-10T10:01:05;7.80;64.10
1103;DHT22;538;42.654;23.376;2023-01-10T10:03:40;7.70;63.50
1103;DHT22;538;42.654;23.376;2023-01-10T10:06:11;7.70;63.10
1103;DHT22;538;42.654;23.376;2023-01-10T10:08:39;7.70;62.10
1103;DHT22;538;42.654;23.376;2023-01-10T10:11:20;7.60;62.20
1103;DHT22;538;42.654;23.376;2023-01-10T10:13:59;7.50;63.00
1103;DHT22;538;42.654;23.376;2023-01-10T10:16:38;7.40;65.80
1103;DHT22;538;42.654;23.376;2023-01-10T10:19:16;7.40;67.50
1103;DHT22;538;42.654;23.376;2023-01-10T10:21:53;7.40;67.50
1103;DHT22;538;42.654;23.376;2023-01-10T10:24:34;7.30;65.10
1103;DHT22;538;42.654;23.376;2023-01-10T10:27:13;7.30;62.10
1103;DHT22;538;42.654;23.376;2023-01-10T10:30:03;7.20;62.20
1103;DHT22;538;42.654;23.376;2023-01-10T10:32:46;7.10;63.20
1103;DHT22;538;42.654;23.376;2023-01-10T10:35:27;6.90;66.80
1103;DHT22;538;42.654;23.376;2023-01-10T10:38:02;6.70;68.60
1103;DHT22;538;42.654;23.376;2023-01-10T10:40:35;6.60;71.90
1103;DHT22;538;42.654;23.376;2023-01-10T10:43:13;6.60;74.20
1103;DHT22;538;42.654;23.376;2023-01-10T10:45:47;6.50;76.80
1103;DHT22;538;42.654;23.376;2023-01-10T10:48:20;6.60;79.20
1103;DHT22;538;42.654;23.376;2023-01-10T10:50:58;6.60;78.00
1103;DHT22;538;42.654;23.376;2023-01-10T10:53:32;6.60;77.90
1103;DHT22;538;42.654;23.376;2023-01-10T10:55:59;6.60;79.70
1103;DHT22;538;42.654;23.376;2023-01-10T10:58:28;6.60;82.50
1103;DHT22;538;42.654;23.376;2023-01-10T11:00:57;6.60;82.40
1103;DHT22;538;42.654;23.376;2023-01-10T11:03:30;6.60;81.50
1103;DHT22;538;42.654;23.376;2023-01-10T11:05:59;6.60;79.50
1103;DHT22;538;42.654;23.376;2023-01-10T11:08:29;6.60;78.30
1103;DHT22;538;42.654;23.376;2023-01-10T11:10:58;6.60;78.80
1103;DHT22;538;42.654;23.376;2023-01-10T11:13:35;6.50;79.60
1103;DHT22;538;42.654;23.376;2023-01-10T11:16:21;6.50;81.40
1103;DHT22;538;42.654;23.376;2023-01-10T11:19:08;6.50;85.80
1103;DHT22;538;42.654;23.376;2023-01-10T11:21:37;6.40;86.30
1103;DHT22;538;42.654;23.376;2023-01-10T11:24:27;6.50;88.00
1103;DHT22;538;42.654;23.376;2023-01-10T11:26:55;6.50;88.60
1103;DHT22;538;42.654;23.376;2023-01-10T11:29:25;6.60;89.00
1103;DHT22;538;42.654;23.376;2023-01-10T11:31:54;6.60;90.40
1103;DHT22;538;42.654;23.376;2023-01-10T11:34:24;6.60;90.70
1103;DHT22;538;42.654;23.376;2023-01-10T11:36:56;6.60;91.10
1103;DHT22;538;42.654;23.376;2023-01-10T11:39:27;6.70;91.80
1103;DHT22;538;42.654;23.376;2023-01-10T11:41:55;6.70;90.50
1103;DHT22;538;42.654;23.376;2023-01-10T11:44:25;6.80;88.40
1103;DHT22;538;42.654;23.376;2023-01-10T11:46:54;7.20;86.40
1103;DHT22;538;42.654;23.376;2023-01-10T11:49:29;6.80;84.50
1103;DHT22;538;42.654;23.376;2023-01-10T11:52:03;6.80;85.40
1103;DHT22;538;42.654;23.376;2023-01-10T11:54:32;6.80;85.50
1103;DHT22;538;42.654;23.376;2023-01-10T11:57:01;6.80;84.30
1103;DHT22;538;42.654;23.376;2023-01-10T11:59:29;6.70;83.50
1103;DHT22;538;42.654;23.376;2023-01-10T12:01:59;6.70;84.10
1103;DHT22;538;42.654;23.376;2023-01-10T12:04:29;6.60;84.40
1103;DHT22;538;42.654;23.376;2023-01-10T12:07:01;6.60;86.60
1103;DHT22;538;42.654;23.376;2023-01-10T12:09:33;6.70;88.10
1103;DHT22;538;42.654;23.376;2023-01-10T12:12:02;6.70;89.90
1103;DHT22;538;42.654;23.376;2023-01-10T12:14:29;6.10;89.30
1103;DHT22;538;42.654;23.376;2023-01-10T12:17:00;6.80;88.40
1103;DHT22;538;42.654;23.376;2023-01-10T12:19:28;6.80;86.70
1103;DHT22;538;42.654;23.376;2023-01-10T12:21:59;6.80;86.10
1103;DHT22;538;42.654;23.376;2023-01-10T12:24:33;6.80;85.50
1103;DHT22;538;42.654;23.376;2023-01-10T12:27:02;6.70;85.30
1103;DHT22;538;42.654;23.376;2023-01-10T12:29:34;6.70;86.90
1103;DHT22;538;42.654;23.376;2023-01-10T12:32:04;6.70;88.70
1103;DHT22;538;42.654;23.376;2023-01-10T12:34:42;6.80;90.00
1103;DHT22;538;42.654;23.376;2023-01-10T12:37:15;6.80;90.50
1103;DHT22;538;42.654;23.376;2023-01-10T12:39:49;6.80;90.70
1103;DHT22;538;42.654;23.376;2023-01-10T12:42:28;6.80;90.00
1103;DHT22;538;42.654;23.376;2023-01-10T12:45:18;6.80;90.70
1103;DHT22;538;42.654;23.376;2023-01-10T12:47:58;6.80;90.40
1103;DHT22;538;42.654;23.376;2023-01-10T12:50:28;8.20;90.40
1103;DHT22;538;42.654;23.376;2023-01-10T12:53:01;6.90;87.40
1103;DHT22;538;42.654;23.376;2023-01-10T12:55:33;5.60;84.20
1103;DHT22;538;42.654;23.376;2023-01-10T12:58:04;6.80;86.10
1103;DHT22;538;42.654;23.376;2023-01-10T13:00:35;6.80;87.10
1103;DHT22;538;42.654;23.376;2023-01-10T13:03:09;6.80;86.80
1103;DHT22;538;42.654;23.376;2023-01-10T13:05:37;6.70;88.60
1103;DHT22;538;42.654;23.376;2023-01-10T13:08:08;6.70;89.60
1103;DHT22;538;42.654;23.376;2023-01-10T13:10:40;6.80;89.60
1103;DHT22;538;42.654;23.376;2023-01-10T13:13:14;6.70;88.20
1103;DHT22;538;42.654;23.376;2023-01-10T13:15:47;6.70;88.20
1103;DHT22;538;42.654;23.376;2023-01-10T13:18:22;6.70;88.40
1103;DHT22;538;42.654;23.376;2023-01-10T13:21:02;6.60;89.70
1103;DHT22;538;42.654;23.376;2023-01-10T13:23:33;6.60;90.20
1103;DHT22;538;42.654;23.376;2023-01-10T13:26:05;6.50;90.30
1103;DHT22;538;42.654;23.376;2023-01-10T13:28:34;6.60;91.30
1103;DHT22;538;42.654;23.376;2023-01-10T13:31:04;6.50;91.60
1103;DHT22;538;42.654;23.376;2023-01-10T13:33:36;6.50;91.00
1103;DHT22;538;42.654;23.376;2023-01-10T13:36:10;6.60;91.00
1103;DHT22;538;42.654;23.376;2023-01-10T13:38:46;6.60;90.90
1103;DHT22;538;42.654;23.376;2023-01-10T13:41:16;6.60;91.00
1103;DHT22;538;42.654;23.376;2023-01-10T13:44:05;6.50;91.10
1103;DHT22;538;42.654;23.376;2023-01-10T13:46:51;6.50;92.40
1103;DHT22;538;42.654;23.376;2023-01-10T13:49:38;6.30;93.40
1103;DHT22;538;42.654;23.376;2023-01-10T13:52:39;6.60;94.30
1103;DHT22;538;42.654;23.376;2023-01-10T13:55:48;6.60;93.50
1103;DHT22;538;42.654;23.376;2023-01-10T13:58:42;6.60;93.60
1103;DHT22;538;42.654;23.376;2023-01-10T14:01:29;6.60;93.40
1103;DHT22;538;42.654;23.376;2023-01-10T14:04:20;6.60;93.60
1103;DHT22;538;42.654;23.376;2023-01-10T14:06:52;6.50;94.50
1103;DHT22;538;42.654;23.376;2023-01-10T14:09:39;6.50;95.30
1103;DHT22;538;42.654;23.376;2023-01-10T14:12:21;6.50;96.00
1103;DHT22;538;42.654;23.376;2023-01-10T14:14:56;6.60;96.50
1103;DHT22;538;42.654;23.376;2023-01-10T14:17:27;7.90;97.60
1103;DHT22;538;42.654;23.376;2023-01-10T14:20:04;6.40;97.60
1103;DHT22;538;42.654;23.376;2023-01-10T14:22:34;6.70;98.00
1103;DHT22;538;42.654;23.376;2023-01-10T14:25:05;6.70;97.10
1103;DHT22;538;42.654;23.376;2023-01-10T14:27:41;6.80;96.50
1103;DHT22;538;42.654;23.376;2023-01-10T14:30:16;6.80;95.70
1103;DHT22;538;42.654;23.376;2023-01-10T14:32:47;6.80;94.80
1103;DHT22;538;42.654;23.376;2023-01-10T14:35:18;6.80;94.10
1103;DHT22;538;42.654;23.376;2023-01-10T14:37:50;6.80;92.90
1103;DHT22;538;42.654;23.376;2023-01-10T14:40:25;6.80;92.00
1103;DHT22;538;42.654;23.376;2023-01-10T14:42:53;6.80;92.00
1103;DHT22;538;42.654;23.376;2023-01-10T14:45:34;6.80;91.80
1103;DHT22;538;42.654;23.376;2023-01-10T14:48:29;6.80;91.10
1103;DHT22;538;42.654;23.376;2023-01-10T14:51:18;6.80;91.10
1103;DHT22;538;42.654;23.376;2023-01-10T14:53:47;6.70;90.20
1103;DHT22;538;42.654;23.376;2023-01-10T14:56:22;6.70;89.10
1103;DHT22;538;42.654;23.376;2023-01-10T14:58:49;6.60;88.10
1103;DHT22;538;42.654;23.376;2023-01-10T15:01:22;6.60;87.80
1103;DHT22;538;42.654;23.376;2023-01-10T15:03:51;6.50;88.40
1103;DHT22;538;42.654;23.376;2023-01-10T15:06:19;6.40;87.90
1103;DHT22;538;42.654;23.376;2023-01-10T15:08:55;6.40;89.50
1103;DHT22;538;42.654;23.376;2023-01-10T15:11:25;6.40;89.00
1103;DHT22;538;42.654;23.376;2023-01-10T15:13:55;6.30;89.50
1103;DHT22;538;42.654;23.376;2023-01-10T15:16:27;6.30;89.00
1103;DHT22;538;42.654;23.376;2023-01-10T15:18:56;6.30;87.80
1103;DHT22;538;42.654;23.376;2023-01-10T15:21:23;6.30;88.10
1103;DHT22;538;42.654;23.376;2023-01-10T15:23:51;6.20;87.80
1103;DHT22;538;42.654;23.376;2023-01-10T15:26:19;6.20;87.40
1103;DHT22;538;42.654;23.376;2023-01-10T15:29:03;6.20;86.10
1103;DHT22;538;42.654;23.376;2023-01-10T15:31:34;6.10;86.40
1103;DHT22;538;42.654;23.376;2023-01-10T15:34:07;6.10;87.10
1103;DHT22;538;42.654;23.376;2023-01-10T15:36:34;6.00;86.80
1103;DHT22;538;42.654;23.376;2023-01-10T15:39:01;5.90;87.70
1103;DHT22;538;42.654;23.376;2023-01-10T15:41:28;5.80;87.40
1103;DHT22;538;42.654;23.376;2023-01-10T15:44:21;5.70;87.10
1103;DHT22;538;42.654;23.376;2023-01-10T15:46:56;5.60;84.60
1103;DHT22;538;42.654;23.376;2023-01-10T15:49:23;5.40;83.00
1103;DHT22;538;42.654;23.376;2023-01-10T15:51:51;5.70;82.10
1103;DHT22;538;42.654;23.376;2023-01-10T15:54:32;5.30;82.10
1103;DHT22;538;42.654;23.376;2023-01-10T15:57:03;5.10;80.10
1103;DHT22;538;42.654;23.376;2023-01-10T15:59:35;4.90;81.20
1103;DHT22;538;42.654;23.376;2023-01-10T16:02:23;4.90;83.10
1103;DHT22;538;42.654;23.376;2023-01-10T16:04:53;4.80;86.30
1103;DHT22;538;42.654;23.376;2023-01-10T16:07:22;4.70;88.00
1103;DHT22;538;42.654;23.376;2023-01-10T16:09:54;4.60;89.70
1103;DHT22;538;42.654;23.376;2023-01-10T16:12:30;4.60;90.80
1103;DHT22;538;42.654;23.376;2023-01-10T16:15:17;4.60;91.90
1103;DHT22;538;42.654;23.376;2023-01-10T16:17:47;4.40;91.70
1103;DHT22;538;42.654;23.376;2023-01-10T16:20:15;4.40;92.00
1103;DHT22;538;42.654;23.376;2023-01-10T16:22:43;4.30;90.10
1103;DHT22;538;42.654;23.376;2023-01-10T16:25:16;4.30;88.30
1103;DHT22;538;42.654;23.376;2023-01-10T16:27:44;4.10;86.60
1103;DHT22;538;42.654;23.376;2023-01-10T16:30:21;4.10;86.80
1103;DHT22;538;42.654;23.376;2023-01-10T16:32:50;3.90;86.70
1103;DHT22;538;42.654;23.376;2023-01-10T16:35:18;3.80;86.80
1103;DHT22;538;42.654;23.376;2023-01-10T16:37:45;3.60;87.60
1103;DHT22;538;42.654;23.376;2023-01-10T16:40:17;3.50;87.50
1103;DHT22;538;42.654;23.376;2023-01-10T16:42:45;3.40;87.10
1103;DHT22;538;42.654;23.376;2023-01-10T16:45:30;3.30;88.40
1103;DHT22;538;42.654;23.376;2023-01-10T16:47:58;3.10;89.90